createdAt,value
2022-12-26T00:01:06.625Z,12.34
2022-12-26T00:03:33.485Z,12.34
2022-12-26T00:06:03.064Z,12.39
2022-12-26T00:08:32.167Z,12.42
2022-12-26T00:11:05.989Z,12.43
2022-12-26T00:13:39.426Z,12.40
2022-12-26T00:16:09.270Z,12.36
2022-12-26T00:18:35.958Z,12.35
2022-12-26T00:21:05.962Z,12.33
2022-12-26T00:23:35.669Z,12.31
2022-12-26T00:26:05.123Z,12.27
2022-12-26T00:28:34.759Z,12.22
2022-12-26T00:31:08.390Z,12.15
2022-12-26T00:33:35.558Z,12.05
2022-12-26T00:36:06.255Z,11.97
2022-12-26T00:38:33.000Z,11.93
2022-12-26T00:40:59.806Z,11.87
2022-12-26T00:43:26.401Z,11.82
2022-12-26T00:45:53.120Z,11.77
2022-12-26T00:48:22.593Z,11.78
2022-12-26T00:50:51.635Z,11.76
2022-12-26T00:53:18.516Z,11.70
2022-12-26T00:55:45.328Z,11.66
2022-12-26T00:58:11.932Z,11.62
2022-12-26T01:00:38.755Z,11.60
2022-12-26T01:03:08.134Z,11.57
2022-12-26T01:05:34.985Z,11.52
2022-12-26T01:08:21.850Z,11.50
2022-12-26T01:10:49.702Z,11.45
2022-12-26T01:13:16.401Z,11.38
2022-12-26T01:15:50.077Z,11.36
2022-12-26T01:18:16.701Z,11.35
2022-12-26T01:20:45.689Z,11.31
2022-12-26T01:23:12.388Z,11.26
2022-12-26T01:26:16.783Z,11.19
2022-12-26T01:28:26.551Z,11.13
2022-12-26T01:30:53.250Z,11.12
2022-12-26T01:33:19.921Z,11.11
2022-12-26T01:35:50.393Z,11.11
2022-12-26T01:38:17.262Z,11.12
2022-12-26T01:40:44.084Z,11.15
2022-12-26T01:43:14.736Z,11.17
2022-12-26T01:45:46.565Z,11.15
2022-12-26T01:48:16.024Z,11.13
2022-12-26T01:50:56.136Z,11.04
2022-12-26T01:53:25.936Z,10.98
2022-12-26T01:55:58.093Z,10.90
2022-12-26T01:58:27.206Z,10.88
2022-12-26T02:00:53.909Z,10.84
2022-12-26T02:03:39.340Z,10.82
2022-12-26T02:06:06.857Z,10.78
2022-12-26T02:08:34.640Z,10.74
2022-12-26T02:11:08.063Z,10.69
2022-12-26T02:13:36.034Z,10.64
2022-12-26T02:16:07.200Z,10.57
2022-12-26T02:18:33.978Z,10.49
2022-12-26T02:21:00.876Z,10.46
2022-12-26T02:23:39.283Z,10.43
2022-12-26T02:26:18.471Z,10.41
2022-12-26T02:28:47.674Z,10.37
2022-12-26T02:31:14.390Z,10.30
2022-12-26T02:33:52.567Z,10.26
2022-12-26T02:36:22.349Z,10.23
2022-12-26T02:39:44.650Z,10.20
2022-12-26T02:41:58.929Z,10.17
2022-12-26T02:44:47.830Z,10.00
2022-12-26T02:47:23.580Z,9.82
2022-12-26T02:50:08.967Z,9.78
2022-12-26T02:53:20.402Z,9.78
2022-12-26T02:56:08.808Z,9.82
2022-12-26T02:59:17.713Z,9.78
2022-12-26T03:02:04.305Z,9.79
2022-12-26T03:04:50.940Z,9.82
2022-12-26T03:07:49.515Z,9.79
2022-12-26T03:10:35.668Z,9.78
2022-12-26T03:13:12.438Z,9.76
2022-12-26T03:16:00.258Z,9.72
2022-12-26T03:18:58.097Z,9.52
2022-12-26T03:21:14.420Z,9.52
2022-12-26T03:23:41.816Z,9.53
2022-12-26T03:26:28.530Z,9.53
2022-12-26T03:29:18.847Z,9.55
2022-12-26T03:31:45.922Z,9.47
2022-12-26T03:34:17.815Z,9.45
2022-12-26T03:36:44.573Z,9.43
2022-12-26T03:39:48.815Z,9.41
2022-12-26T03:42:46.561Z,9.35
2022-12-26T03:45:38.168Z,9.20
2022-12-26T03:48:35.911Z,9.04
2022-12-26T03:51:29.832Z,9.00
2022-12-26T03:54:41.740Z,8.81
2022-12-26T03:57:28.261Z,8.46
2022-12-26T04:00:21.310Z,8.33
2022-12-26T04:03:07.430Z,8.33
2022-12-26T04:05:53.973Z,8.40
2022-12-26T04:08:43.918Z,8.47
2022-12-26T04:11:29.931Z,8.53
2022-12-26T04:14:18.287Z,8.50
2022-12-26T04:17:05.276Z,8.47
2022-12-26T04:19:50.858Z,8.42
2022-12-26T04:22:44.676Z,8.30
2022-12-26T04:25:51.449Z,8.29
2022-12-26T04:28:40.462Z,8.28
2022-12-26T04:31:27.052Z,8.29
2022-12-26T04:34:15.197Z,8.29
2022-12-26T04:37:02.292Z,8.16
2022-12-26T04:39:48.574Z,8.11
2022-12-26T04:42:33.989Z,8.12
2022-12-26T04:45:00.679Z,8.07
2022-12-26T04:47:30.482Z,8.03
2022-12-26T04:50:12.121Z,8.05
2022-12-26T04:53:00.806Z,7.96
2022-12-26T04:55:28.610Z,7.97
2022-12-26T04:57:55.510Z,7.89
2022-12-26T05:00:28.327Z,7.84
2022-12-26T05:03:18.701Z,7.93
2022-12-26T05:06:05.687Z,8.05
2022-12-26T05:08:57.408Z,8.15
2022-12-26T05:11:24.176Z,8.06
2022-12-26T05:13:56.785Z,8.07
2022-12-26T05:16:42.614Z,8.19
2022-12-26T05:19:31.169Z,8.18
2022-12-26T05:22:16.748Z,8.14
2022-12-26T05:25:02.116Z,8.19
2022-12-26T05:27:58.674Z,8.27
2022-12-26T05:30:25.760Z,8.29
2022-12-26T05:33:11.447Z,8.29
2022-12-26T05:35:38.165Z,8.34
2022-12-26T05:38:04.756Z,8.37
2022-12-26T05:40:33.977Z,8.44
2022-12-26T05:43:04.898Z,8.49
2022-12-26T05:45:31.978Z,8.53
2022-12-26T05:48:01.949Z,8.51
2022-12-26T05:50:31.081Z,8.52
2022-12-26T05:52:58.177Z,8.53
2022-12-26T05:55:25.133Z,8.53
2022-12-26T05:57:51.856Z,8.55
2022-12-26T06:00:23.787Z,8.55
2022-12-26T06:02:50.977Z,8.57
2022-12-26T06:05:17.636Z,8.57
2022-12-26T06:07:47.009Z,8.58
2022-12-26T06:10:13.752Z,8.56
2022-12-26T06:12:40.418Z,8.54
2022-12-26T06:15:09.688Z,8.52
2022-12-26T06:17:36.297Z,8.48
2022-12-26T06:20:05.479Z,8.43
2022-12-26T06:22:32.073Z,8.47
2022-12-26T06:25:03.617Z,8.53
2022-12-26T06:27:30.225Z,8.49
2022-12-26T06:30:04.408Z,8.53
2022-12-26T06:32:31.204Z,8.57
2022-12-26T06:35:00.365Z,8.58
2022-12-26T06:37:29.525Z,8.59
2022-12-26T06:39:56.216Z,8.56
2022-12-26T06:42:22.806Z,8.61
2022-12-26T06:44:49.427Z,8.69
2022-12-26T06:47:16.049Z,8.76
2022-12-26T06:49:42.653Z,8.82
2022-12-26T06:52:11.505Z,8.87
2022-12-26T06:54:38.282Z,8.91
2022-12-26T06:57:04.989Z,8.87
2022-12-26T06:59:31.555Z,8.89
2022-12-26T07:01:58.584Z,8.97
2022-12-26T07:04:30.311Z,9.02
2022-12-26T07:06:57.082Z,9.03
2022-12-26T07:09:28.388Z,9.00
2022-12-26T07:11:58.197Z,9.08
2022-12-26T07:14:27.159Z,9.14
2022-12-26T07:16:56.019Z,9.19
2022-12-26T07:19:25.183Z,9.02
2022-12-26T07:21:51.943Z,9.05
2022-12-26T07:24:20.092Z,9.11
2022-12-26T07:26:47.070Z,9.14
2022-12-26T07:29:16.576Z,9.09
2022-12-26T07:31:43.254Z,9.18
2022-12-26T07:34:10.112Z,9.16
2022-12-26T07:36:36.712Z,9.13
2022-12-26T07:39:03.813Z,9.17
2022-12-26T07:41:49.233Z,9.24
2022-12-26T07:44:15.819Z,9.30
2022-12-26T07:46:42.450Z,9.38
2022-12-26T07:49:12.176Z,9.43
2022-12-26T07:51:38.933Z,9.43
2022-12-26T07:54:11.358Z,9.50
2022-12-26T07:56:42.026Z,9.58
2022-12-26T07:59:14.534Z,9.68
2022-12-26T08:01:42.215Z,9.74
2022-12-26T08:04:12.696Z,9.82
2022-12-26T08:06:39.362Z,9.85
2022-12-26T08:09:07.975Z,9.88
2022-12-26T08:11:35.596Z,9.93
2022-12-26T08:14:05.109Z,9.98
2022-12-26T08:16:34.389Z,9.99
2022-12-26T08:19:02.831Z,10.02
2022-12-26T08:21:31.617Z,10.02
2022-12-26T08:23:58.250Z,9.88
2022-12-26T08:26:24.848Z,9.89
2022-12-26T08:28:55.297Z,9.90
2022-12-26T08:31:22.263Z,10.01
2022-12-26T08:33:49.135Z,10.06
2022-12-26T08:36:19.344Z,10.09
2022-12-26T08:38:46.020Z,10.14
2022-12-26T08:41:12.711Z,10.19
2022-12-26T08:44:24.485Z,10.18
2022-12-26T08:46:31.150Z,10.11
2022-12-26T08:48:57.778Z,10.03
2022-12-26T08:51:24.914Z,10.11
2022-12-26T08:53:54.696Z,10.00
2022-12-26T08:56:22.708Z,10.10
2022-12-26T08:58:49.340Z,10.01
2022-12-26T09:01:17.358Z,10.01
2022-12-26T09:03:46.245Z,10.00
2022-12-26T09:06:18.264Z,10.07
2022-12-26T09:08:45.001Z,10.23
2022-12-26T09:11:15.819Z,10.30
2022-12-26T09:13:42.797Z,10.18
2022-12-26T09:16:13.731Z,10.21
2022-12-26T09:18:40.490Z,10.12
2022-12-26T09:21:09.048Z,10.23
2022-12-26T09:23:36.133Z,10.41
2022-12-26T09:26:09.212Z,10.53
2022-12-26T09:28:35.980Z,10.54
2022-12-26T09:31:03.309Z,10.62
2022-12-26T09:33:33.504Z,10.70
2022-12-26T09:36:08.250Z,10.83
2022-12-26T09:38:37.786Z,10.96
2022-12-26T09:41:04.407Z,11.01
2022-12-26T09:43:50.263Z,11.05
2022-12-26T09:46:21.833Z,11.14
2022-12-26T09:48:54.546Z,11.28
2022-12-26T09:51:21.248Z,11.39
2022-12-26T09:53:47.950Z,11.45
2022-12-26T09:57:01.127Z,11.48
2022-12-26T09:59:16.069Z,11.54
2022-12-26T10:01:45.383Z,11.59
2022-12-26T10:04:34.602Z,11.63
2022-12-26T10:07:13.579Z,11.68
2022-12-26T10:09:43.508Z,11.71
2022-12-26T10:12:16.296Z,11.75
2022-12-26T10:15:01.679Z,11.77
2022-12-26T10:17:31.278Z,11.73
2022-12-26T10:20:00.613Z,11.76
2022-12-26T10:22:36.802Z,11.81
2022-12-26T10:25:06.224Z,11.86
2022-12-26T10:27:34.758Z,11.90
2022-12-26T10:30:05.492Z,11.88
2022-12-26T10:32:40.154Z,11.78
2022-12-26T10:35:36.351Z,11.63
2022-12-26T10:38:27.782Z,11.60
2022-12-26T10:40:55.216Z,11.59
2022-12-26T10:43:28.669Z,11.71
2022-12-26T10:45:58.328Z,11.73
2022-12-26T10:48:25.645Z,11.77
2022-12-26T10:50:53.852Z,11.81
2022-12-26T10:53:20.503Z,11.84
2022-12-26T10:55:47.268Z,11.90
2022-12-26T10:58:20.619Z,11.96
2022-12-26T11:00:49.728Z,12.01
2022-12-26T11:03:18.736Z,12.11
2022-12-26T11:06:08.974Z,12.08
2022-12-26T11:08:43.847Z,12.02
2022-12-26T11:11:14.833Z,11.96
2022-12-26T11:13:49.439Z,11.96
2022-12-26T11:16:23.587Z,11.89
2022-12-26T11:18:51.069Z,11.70
2022-12-26T11:21:17.748Z,11.52
2022-12-26T11:23:45.013Z,11.41
2022-12-26T11:26:22.593Z,11.48
2022-12-26T11:28:58.066Z,11.45
2022-12-26T11:31:32.186Z,11.52
2022-12-26T11:34:01.802Z,11.60
2022-12-26T11:36:29.218Z,11.68
2022-12-26T11:38:57.671Z,11.47
2022-12-26T11:41:33.472Z,11.43
2022-12-26T11:44:02.430Z,11.10
2022-12-26T11:46:35.642Z,11.17
2022-12-26T11:49:05.004Z,11.43
2022-12-26T11:51:42.078Z,11.66
2022-12-26T11:54:20.928Z,11.84
2022-12-26T11:56:47.912Z,11.67
2022-12-26T11:59:41.057Z,11.69
2022-12-26T12:02:13.544Z,11.94
2022-12-26T12:04:42.748Z,12.09
2022-12-26T12:07:15.345Z,12.03
2022-12-26T12:09:54.016Z,11.52
2022-12-26T12:12:33.015Z,11.47
2022-12-26T12:15:00.229Z,11.70
2022-12-26T12:17:45.805Z,11.89
2022-12-26T12:20:27.715Z,12.06
2022-12-26T12:22:56.854Z,11.80
2022-12-26T12:25:23.624Z,11.81
2022-12-26T12:27:59.655Z,11.91
2022-12-26T12:30:41.630Z,11.85
2022-12-26T12:33:22.914Z,12.02
2022-12-26T12:36:08.248Z,12.22
2022-12-26T12:38:56.839Z,12.39
2022-12-26T12:41:38.924Z,12.32
2022-12-26T12:44:19.588Z,12.61
2022-12-26T12:46:54.446Z,12.74
2022-12-26T12:49:24.692Z,12.64
2022-12-26T12:52:09.498Z,12.65
2022-12-26T12:54:42.151Z,12.70
2022-12-26T12:57:27.901Z,12.92
2022-12-26T13:00:00.722Z,13.10
2022-12-26T13:02:32.812Z,13.17
2022-12-26T13:05:05.047Z,13.19
2022-12-26T13:07:33.644Z,13.16
2022-12-26T13:10:04.689Z,13.16
2022-12-26T13:12:35.215Z,13.21
2022-12-26T13:15:03.033Z,13.14
2022-12-26T13:17:31.847Z,12.91
2022-12-26T13:20:01.803Z,12.62
2022-12-26T13:22:54.402Z,12.40
2022-12-26T13:25:21.207Z,12.43
2022-12-26T13:27:48.620Z,12.53
2022-12-26T13:30:17.702Z,12.60
2022-12-26T13:32:46.728Z,12.53
2022-12-26T13:35:32.432Z,12.47
2022-12-26T13:38:04.164Z,12.23
2022-12-26T13:40:31.253Z,12.13
2022-12-26T13:43:19.527Z,12.12
2022-12-26T13:45:50.462Z,12.14
2022-12-26T13:48:17.112Z,12.09
2022-12-26T13:50:55.249Z,12.06
2022-12-26T13:53:25.676Z,12.05
2022-12-26T13:55:53.534Z,12.03
2022-12-26T13:58:20.130Z,12.01
2022-12-26T14:00:47.253Z,12.00
2022-12-26T14:03:21.035Z,11.98
2022-12-26T14:05:58.091Z,11.91
2022-12-26T14:08:33.208Z,11.71
2022-12-26T14:11:13.371Z,11.65
2022-12-26T14:13:52.143Z,11.62
2022-12-26T14:16:44.245Z,11.53
2022-12-26T14:19:15.482Z,11.43
2022-12-26T14:21:56.669Z,11.41
2022-12-26T14:24:31.449Z,11.32
2022-12-26T14:27:19.706Z,11.27
2022-12-26T14:29:46.816Z,11.11
2022-12-26T14:32:22.539Z,11.01
2022-12-26T14:35:00.311Z,10.94
2022-12-26T14:37:32.950Z,10.83
2022-12-26T14:40:17.614Z,10.75
2022-12-26T14:43:12.868Z,10.72
2022-12-26T14:45:42.657Z,10.66
2022-12-26T14:48:29.586Z,10.54
2022-12-26T14:51:02.700Z,10.45
2022-12-26T14:53:33.659Z,10.39
2022-12-26T14:56:24.929Z,10.30
2022-12-26T14:58:55.431Z,10.28
2022-12-26T15:01:22.133Z,10.24
2022-12-26T15:03:51.955Z,10.18
2022-12-26T15:06:18.681Z,10.11
2022-12-26T15:08:45.393Z,10.08
2022-12-26T15:11:30.854Z,10.04
2022-12-26T15:14:00.356Z,9.99
2022-12-26T15:16:49.493Z,9.98
2022-12-26T15:19:35.026Z,10.00
2022-12-26T15:22:10.091Z,10.00
2022-12-26T15:28:01.978Z,9.89
2022-12-26T15:30:38.189Z,9.85
2022-12-26T15:33:10.177Z,9.82
2022-12-26T15:35:43.661Z,9.79
2022-12-26T15:38:25.622Z,9.77
2022-12-26T15:40:58.328Z,9.73
2022-12-26T15:43:30.848Z,9.73
2022-12-26T15:46:00.507Z,9.73
2022-12-26T15:48:28.022Z,9.70
2022-12-26T15:50:58.001Z,9.66
2022-12-26T15:53:39.893Z,9.65
2022-12-26T15:56:27.205Z,9.57
2022-12-26T15:58:57.210Z,9.54
2022-12-26T16:01:34.324Z,9.42
2022-12-26T16:04:04.134Z,9.41
2022-12-26T16:06:37.071Z,9.41
2022-12-26T16:09:09.884Z,9.38
2022-12-26T16:11:46.407Z,9.37
2022-12-26T16:14:39.403Z,9.34
2022-12-26T16:17:09.809Z,9.32
2022-12-26T16:19:36.554Z,9.27
2022-12-26T16:22:22.807Z,9.23
2022-12-26T16:24:51.633Z,9.25
2022-12-26T16:27:21.676Z,9.26
2022-12-26T16:29:51.644Z,9.29
2022-12-26T16:32:21.668Z,9.24
2022-12-26T16:34:48.693Z,9.21
2022-12-26T16:37:22.811Z,9.07
2022-12-26T16:40:08.440Z,9.08
2022-12-26T16:42:37.427Z,9.06
2022-12-26T16:45:04.121Z,9.12
2022-12-26T16:47:31.553Z,9.06
2022-12-26T16:50:01.193Z,9.06
2022-12-26T16:52:33.938Z,9.13
2022-12-26T16:55:19.371Z,9.21
2022-12-26T16:57:46.033Z,9.27
2022-12-26T17:00:21.779Z,9.24
2022-12-26T17:02:49.063Z,9.21
2022-12-26T17:05:23.091Z,9.16
2022-12-26T17:07:52.901Z,9.20
2022-12-26T17:10:21.102Z,9.22
2022-12-26T17:12:48.201Z,9.24
2022-12-26T17:15:19.375Z,9.27
2022-12-26T17:17:46.356Z,9.30
2022-12-26T17:20:36.317Z,9.32
2022-12-26T17:23:22.835Z,9.27
2022-12-26T17:25:51.008Z,9.25
2022-12-26T17:28:17.987Z,9.23
2022-12-26T17:30:50.449Z,9.19
2022-12-26T17:33:23.464Z,9.22
2022-12-26T17:38:40.405Z,9.12
2022-12-26T17:41:07.148Z,9.08
2022-12-26T17:43:37.610Z,9.07
2022-12-26T17:46:04.943Z,9.06
2022-12-26T17:48:31.927Z,9.08
2022-12-26T17:51:00.761Z,9.10
2022-12-26T17:53:33.809Z,9.08
2022-12-26T17:56:03.564Z,9.04
2022-12-26T17:58:32.700Z,8.97
2022-12-26T18:00:59.669Z,8.95
2022-12-26T18:03:31.016Z,8.90
2022-12-26T18:05:57.796Z,8.91
2022-12-26T18:08:28.535Z,8.90
2022-12-26T18:10:55.411Z,8.92
2022-12-26T18:13:22.013Z,8.83
2022-12-26T18:15:48.764Z,8.80
2022-12-26T18:18:40.851Z,8.72
2022-12-26T18:21:20.042Z,8.75
2022-12-26T18:23:49.136Z,8.57
2022-12-26T18:26:20.700Z,8.44
2022-12-26T18:28:47.465Z,8.44
2022-12-26T18:31:14.439Z,8.43
2022-12-26T18:33:43.520Z,8.48
2022-12-26T18:36:11.760Z,8.51
2022-12-26T18:38:38.426Z,8.49
2022-12-26T18:41:05.336Z,8.46
2022-12-26T18:43:31.980Z,8.49
2022-12-26T18:45:58.656Z,8.47
2022-12-26T18:48:25.433Z,8.46
2022-12-26T18:50:54.812Z,8.33
2022-12-26T18:53:23.961Z,8.34
2022-12-26T18:55:53.041Z,8.39
2022-12-26T18:58:21.933Z,8.48
2022-12-26T19:00:51.313Z,8.51
2022-12-26T19:03:18.130Z,8.57
2022-12-26T19:05:44.942Z,8.61
2022-12-26T19:08:14.455Z,8.57
2022-12-26T19:10:42.185Z,8.55
2022-12-26T19:13:11.255Z,8.57
2022-12-26T19:15:38.077Z,8.62
2022-12-26T19:18:07.164Z,8.62
2022-12-26T19:20:36.606Z,8.62
2022-12-26T19:23:10.182Z,8.64
2022-12-26T19:25:39.329Z,8.61
2022-12-26T19:28:06.722Z,8.63
2022-12-26T19:30:38.447Z,8.60
2022-12-26T19:33:07.622Z,8.63
2022-12-26T19:35:35.651Z,8.68
2022-12-26T19:38:02.398Z,8.68
2022-12-26T19:40:29.244Z,8.71
2022-12-26T19:42:55.943Z,8.78
2022-12-26T19:45:24.685Z,8.76
2022-12-26T19:47:51.425Z,8.77
2022-12-26T19:50:20.494Z,8.66
2022-12-26T19:52:47.523Z,8.61
2022-12-26T19:55:17.059Z,8.62
2022-12-26T19:57:43.641Z,8.67
2022-12-26T20:00:13.135Z,8.64
2022-12-26T20:02:49.898Z,8.66
2022-12-26T20:05:16.641Z,8.65
2022-12-26T20:07:43.276Z,8.64
2022-12-26T20:10:09.922Z,8.57
2022-12-26T20:12:36.763Z,8.44
2022-12-26T20:15:08.929Z,8.41
2022-12-26T20:17:38.704Z,8.41
2022-12-26T20:20:07.745Z,8.47
2022-12-26T20:22:34.393Z,8.47
2022-12-26T20:25:04.332Z,8.51
2022-12-26T20:27:31.071Z,8.59
2022-12-26T20:29:59.936Z,8.65
2022-12-26T20:32:29.528Z,8.73
2022-12-26T20:34:56.358Z,8.80
2022-12-26T20:37:23.002Z,8.81
2022-12-26T20:39:49.569Z,8.82
2022-12-26T20:42:19.653Z,8.86
2022-12-26T20:44:46.327Z,8.90
2022-12-26T20:47:15.692Z,8.84
2022-12-26T20:49:48.167Z,8.81
2022-12-26T20:52:16.618Z,8.67
2022-12-26T20:54:48.879Z,8.64
2022-12-26T20:57:20.926Z,8.57
2022-12-26T20:59:47.777Z,8.59
2022-12-26T21:02:14.815Z,8.60
2022-12-26T21:04:47.092Z,8.57
2022-12-26T21:07:13.753Z,8.57
2022-12-26T21:09:45.940Z,8.61
2022-12-26T21:12:15.753Z,8.69
2022-12-26T21:14:44.809Z,8.65
2022-12-26T21:17:18.160Z,8.12
2022-12-26T21:19:45.079Z,7.96
2022-12-26T21:22:11.685Z,8.05
2022-12-26T21:24:38.460Z,8.08
2022-12-26T21:27:05.081Z,8.14
2022-12-26T21:29:32.941Z,8.30
2022-12-26T21:32:02.082Z,8.34
2022-12-26T21:34:31.901Z,8.44
2022-12-26T21:37:17.213Z,8.54
2022-12-26T21:39:43.930Z,8.61
2022-12-26T21:42:13.211Z,8.67
2022-12-26T21:44:42.353Z,8.71
2022-12-26T21:47:09.028Z,8.72
2022-12-26T21:49:36.319Z,8.72
2022-12-26T21:52:03.681Z,8.77
2022-12-26T21:54:51.369Z,8.78
2022-12-26T21:57:18.462Z,8.79
2022-12-26T21:59:57.645Z,8.87
2022-12-26T22:02:50.714Z,8.84
2022-12-26T22:05:20.909Z,8.87
2022-12-26T22:07:47.728Z,8.89
2022-12-26T22:10:34.342Z,8.98
2022-12-26T22:13:03.740Z,9.03
2022-12-26T22:15:51.139Z,8.83
2022-12-26T22:18:20.253Z,8.57
2022-12-26T22:20:49.438Z,8.56
2022-12-26T22:23:16.181Z,8.58
2022-12-26T22:25:42.846Z,8.45
2022-12-26T22:28:12.106Z,8.53
2022-12-26T22:30:38.677Z,8.63
2022-12-26T22:33:11.201Z,8.67
2022-12-26T22:35:38.220Z,8.55
2022-12-26T22:38:04.867Z,8.40
2022-12-26T22:40:34.358Z,8.47
2022-12-26T22:43:03.792Z,8.57
2022-12-26T22:45:30.423Z,8.63
2022-12-26T22:47:59.584Z,8.55
2022-12-26T22:50:29.389Z,8.56
2022-12-26T22:52:58.864Z,8.62
2022-12-26T22:55:25.560Z,8.75
2022-12-26T22:58:17.375Z,8.83
2022-12-26T23:00:44.330Z,8.74
2022-12-26T23:03:11.126Z,8.61
2022-12-26T23:05:38.269Z,8.63
2022-12-26T23:08:05.381Z,8.65
2022-12-26T23:10:32.262Z,8.57
2022-12-26T23:13:03.650Z,8.56
2022-12-26T23:15:35.658Z,8.63
2022-12-26T23:18:24.093Z,8.70
2022-12-26T23:21:09.749Z,8.81
2022-12-26T23:23:36.430Z,8.76
2022-12-26T23:26:05.289Z,8.80
2022-12-26T23:28:50.922Z,8.80
2022-12-26T23:31:17.564Z,8.85
2022-12-26T23:33:44.315Z,8.89
2022-12-26T23:36:11.046Z,8.92
2022-12-26T23:38:37.777Z,8.92
2022-12-26T23:41:07.819Z,8.98
2022-12-26T23:43:34.535Z,9.04
2022-12-26T23:46:01.264Z,9.05
2022-12-26T23:48:32.937Z,9.05
2022-12-26T23:51:06.110Z,8.98
2022-12-26T23:53:35.575Z,9.02
2022-12-26T23:56:02.115Z,9.00
2022-12-26T23:58:32.063Z,8.93
